Time;durP1;ratioP1;P1;durP2;ratioP2;P2;SDS_P1;SDS_P2;PMS_P1;PMS_P2;Temp;Humidity;BMP_temperature;BMP_pressure;BME280_temperature;BME280_humidity;BME280_pressure;Samples;Min_cycle;Max_cycle;Signal;HPM_P1;HPM_P2
2022/07/12 00:00:28;;;;;;;26.23;24.58;;;;;;;9.94;71.00;93889.72;5112703;28;20057;-39
2022/07/12 00:02:54;;;;;;;7.68;5.40;;;;;;;9.98;71.09;93886.66;5112043;28;20019;-39
2022/07/12 00:05:19;;;;;;;19.70;18.20;;;;;;;9.92;71.87;93889.53;5111263;28;20047;-38
2022/07/12 00:07:45;;;;;;;9.40;4.57;;;;;;;9.96;70.69;93886.47;5112607;28;20428;-38
2022/07/12 00:10:10;;;;;;;5.15;4.30;;;;;;;9.84;71.53;93892.22;5112249;28;20512;-39
2022/07/12 00:12:36;;;;;;;5.43;4.10;;;;;;;9.79;70.71;93861.97;5112203;28;20015;-39
2022/07/12 00:15:01;;;;;;;4.55;3.58;;;;;;;9.62;70.20;93878.13;5112012;28;20027;-39
2022/07/12 00:17:27;;;;;;;4.70;3.20;;;;;;;9.60;70.13;93880.69;5112295;28;20027;-39
2022/07/12 00:19:52;;;;;;;3.28;3.03;;;;;;;9.51;70.33;93887.38;5112260;28;20447;-38
2022/07/12 00:22:17;;;;;;;3.25;2.95;;;;;;;9.54;70.29;93888.31;5112010;28;20557;-38
2022/07/12 00:24:43;;;;;;;3.72;3.30;;;;;;;9.60;70.71;93881.41;5112038;28;20031;-38
2022/07/12 00:27:08;;;;;;;4.32;3.50;;;;;;;9.48;71.00;93879.44;5110851;28;20033;-38
2022/07/12 00:29:34;;;;;;;4.97;3.50;;;;;;;9.34;71.39;93888.97;5109468;28;20022;-38
2022/07/12 00:31:59;;;;;;;4.93;3.60;;;;;;;9.50;70.91;93890.66;5111300;28;20106;-39
2022/07/12 00:34:24;;;;;;;4.45;3.28;;;;;;;9.31;71.42;93890.03;5110884;28;20057;-39
2022/07/12 00:36:50;;;;;;;22.35;20.38;;;;;;;9.40;71.21;93895.13;5111274;28;20026;-38
2022/07/12 00:39:15;;;;;;;5.25;3.47;;;;;;;9.57;71.10;93888.00;5111070;28;20024;-38
2022/07/12 00:41:42;;;;;;;22.25;20.95;;;;;;;9.69;70.89;93899.53;5111681;28;20023;-39
2022/07/12 00:44:07;;;;;;;4.38;3.60;;;;;;;9.50;70.92;93890.66;5111901;28;20090;-40
2022/07/12 00:46:33;;;;;;;4.60;4.15;;;;;;;9.27;71.54;93892.38;5111532;28;20020;-40
2022/07/12 00:48:58;;;;;;;5.93;3.40;;;;;;;9.24;71.20;93888.66;5111409;28;20039;-40
2022/07/12 00:51:25;;;;;;;4.97;2.83;;;;;;;9.34;70.67;93880.69;5109828;28;20016;-40
2022/07/12 00:53:51;;;;;;;6.63;6.07;;;;;;;9.30;70.17;93875.50;5110551;28;20446;-40
2022/07/12 00:56:16;;;;;;;26.15;24.85;;;;;;;9.42;69.99;93887.06;5108942;28;20077;-40
2022/07/12 00:58:43;;;;;;;3.13;2.75;;;;;;;9.47;69.71;93878.69;5110574;28;20084;-40
2022/07/12 01:01:09;;;;;;;2.80;2.60;;;;;;;9.58;68.87;93877.72;5111285;28;20518;-40
2022/07/12 01:03:35;;;;;;;3.28;2.78;;;;;;;9.62;68.70;93878.13;5111497;28;20027;-40
2022/07/12 01:06:01;;;;;;;3.10;2.72;;;;;;;9.33;69.34;93884.72;5111528;28;20020;-41
2022/07/12 01:08:27;;;;;;;2.97;2.60;;;;;;;9.33;69.95;93879.97;5111402;28;20015;-40
2022/07/12 01:10:53;;;;;;;3.80;3.28;;;;;;;9.23;70.14;93886.41;5111075;28;20032;-40
2022/07/12 01:13:19;;;;;;;5.15;3.50;;;;;;;9.17;70.03;93864.47;5111210;28;20474;-39
2022/07/12 01:15:46;;;;;;;4.32;2.95;;;;;;;9.29;70.95;93887.06;5109868;28;20024;-40
2022/07/12 01:18:11;;;;;;;2.97;2.70;;;;;;;9.28;70.98;93885.56;5110035;28;20492;-40
2022/07/12 01:20:37;;;;;;;4.30;3.53;;;;;;;8.93;70.79;93865.41;5109738;28;20106;-40
2022/07/12 01:23:03;;;;;;;3.67;3.35;;;;;;;8.95;70.48;93879.41;5110970;28;20523;-40
2022/07/12 01:25:29;;;;;;;2.55;2.35;;;;;;;8.96;70.24;93885.66;5111003;28;20055;-40
2022/07/12 01:27:54;;;;;;;4.43;3.00;;;;;;;8.71;70.96;93876.81;5110866;28;20020;-39
2022/07/12 01:30:20;;;;;;;3.10;2.88;;;;;;;8.63;71.46;93886.22;5111057;28;20076;-40
2022/07/12 01:32:45;;;;;;;3.30;3.00;;;;;;;8.53;71.41;93879.63;5110872;28;20103;-40
2022/07/12 01:35:11;;;;;;;3.20;2.90;;;;;;;8.52;71.25;93895.41;5109841;28;20034;-40
2022/07/12 01:37:38;;;;;;;7.32;3.20;;;;;;;8.51;71.44;93871.88;5109759;28;20619;-40
2022/07/12 01:40:06;;;;;;;3.58;3.28;;;;;;;8.63;71.83;93886.22;5110837;28;20430;-39
2022/07/12 01:42:32;;;;;;;3.63;3.22;;;;;;;8.53;72.20;93890.66;5110680;28;20019;-40
2022/07/12 01:44:57;;;;;;;3.35;2.83;;;;;;;8.74;71.38;93884.03;5110405;28;20043;-39
2022/07/12 01:47:26;;;;;;;3.45;2.85;;;;;;;8.85;71.42;93891.34;5110334;28;20051;-40
2022/07/12 01:49:51;;;;;;;3.30;2.50;;;;;;;8.72;70.93;93885.81;5110335;28;20007;-39
2022/07/12 01:52:17;;;;;;;3.05;2.63;;;;;;;8.70;70.44;93885.59;5110290;28;20069;-38
2022/07/12 01:54:43;;;;;;;4.72;2.47;;;;;;;8.66;71.00;93896.94;5110611;28;20031;-39
2022/07/12 01:57:09;;;;;;;3.97;2.53;;;;;;;8.69;70.63;93892.38;5110539;28;20027;-39
2022/07/12 01:59:34;;;;;;;2.67;2.47;;;;;;;8.84;70.04;93887.84;5110441;28;20047;-39
2022/07/12 02:02:03;;;;;;;3.42;3.13;;;;;;;8.86;70.01;93884.56;5110780;28;20028;-39
2022/07/12 02:04:29;;;;;;;3.63;2.92;;;;;;;8.65;70.14;93883.69;5110519;28;20030;-39
2022/07/12 02:06:55;;;;;;;2.67;2.47;;;;;;;8.58;70.42;93876.78;5109599;28;20028;-39
2022/07/12 02:09:21;;;;;;;9.05;3.00;;;;;;;8.35;70.45;93856.41;5110381;28;20019;-39
2022/07/12 02:11:49;;;;;;;2.65;2.45;;;;;;;8.68;70.17;93877.88;5110762;28;20104;-39
2022/07/12 02:14:16;;;;;;;2.60;2.40;;;;;;;8.58;70.22;93874.03;5110633;28;20020;-38
2022/07/12 02:16:41;;;;;;;3.15;2.80;;;;;;;8.49;70.23;93873.69;5110677;28;20115;-38
2022/07/12 02:19:08;;;;;;;3.47;2.63;;;;;;;8.51;69.98;93882.91;5110738;28;20429;-38
2022/07/12 02:21:34;;;;;;;3.97;3.20;;;;;;;8.51;70.82;93873.91;5110557;28;20028;-39
2022/07/12 02:24:00;;;;;;;3.15;2.90;;;;;;;8.49;70.70;93876.47;5110543;28;20538;-38
2022/07/12 02:26:25;;;;;;;4.32;3.38;;;;;;;8.31;71.56;93875.22;5110589;28;20227;-38
2022/07/12 02:28:51;;;;;;;5.65;3.95;;;;;;;8.24;71.86;93862.03;5109341;28;20133;-38
2022/07/12 02:31:16;;;;;;;3.67;3.38;;;;;;;8.16;72.42;93877.69;5110083;28;20026;-38
2022/07/12 02:33:42;;;;;;;3.88;3.50;;;;;;;8.25;71.91;93882.81;5110480;28;20024;-39
2022/07/12 02:36:08;;;;;;;3.13;2.92;;;;;;;8.06;72.13;93874.56;5110482;28;20088;-39
2022/07/12 02:38:33;;;;;;;3.35;3.10;;;;;;;8.16;72.54;93877.69;5110019;28;20015;-39
2022/07/12 02:40:59;;;;;;;3.30;3.00;;;;;;;8.03;71.81;93886.63;5110390;28;20024;-39
2022/07/12 02:43:30;;;;;;;3.20;2.90;;;;;;;7.96;71.93;93886.47;5110303;28;20030;-39
2022/07/12 02:46:08;;;;;;;3.00;2.70;;;;;;;8.00;72.21;93887.66;5110269;28;20026;-38
2022/07/12 02:48:35;;;;;;;3.42;3.13;;;;;;;8.12;71.31;93883.47;5110049;28;20039;-38
2022/07/12 02:51:01;;;;;;;2.80;2.60;;;;;;;8.20;70.45;93884.38;5109979;28;20027;-39
2022/07/12 02:53:27;;;;;;;3.40;2.92;;;;;;;7.96;71.12;93870.72;5109983;28;20066;-38
2022/07/12 02:55:52;;;;;;;3.28;2.97;;;;;;;7.98;70.93;93883.94;5110295;28;20035;-38
2022/07/12 02:58:18;;;;;;;2.97;2.75;;;;;;;7.96;70.74;93881.72;5112078;28;20050;-38
2022/07/12 03:00:44;;;;;;;3.20;2.90;;;;;;;8.06;70.82;93882.81;5113727;28;20027;-38
2022/07/12 03:03:11;;;;;;;2.80;2.60;;;;;;;8.06;70.61;93887.56;5113186;28;20019;-39
2022/07/12 03:05:36;;;;;;;3.10;2.90;;;;;;;7.90;71.13;93894.06;5113433;28;20027;-38
2022/07/12 03:08:06;;;;;;;2.70;2.50;;;;;;;7.80;71.18;93890.91;5113185;28;20027;-38
2022/07/12 03:10:32;;;;;;;4.30;2.95;;;;;;;7.95;71.27;93893.97;5113485;28;20489;-39
2022/07/12 03:12:57;;;;;;;3.05;2.85;;;;;;;7.96;70.55;93891.97;5113521;28;20019;-39
2022/07/12 03:15:23;;;;;;;2.88;2.67;;;;;;;7.73;71.52;93908.03;5112034;28;20028;-38
2022/07/12 03:17:48;;;;;;;3.97;3.17;;;;;;;7.93;71.89;93904.75;5113339;28;20052;-38
2022/07/12 03:20:14;;;;;;;3.40;3.10;;;;;;;7.90;72.57;93905.78;5113180;28;20024;-38
2022/07/12 03:22:48;;;;;;;3.70;3.40;;;;;;;7.80;72.51;93912.91;5113254;28;20058;-38
2022/07/12 03:25:14;;;;;;;3.70;3.28;;;;;;;7.67;73.05;93915.56;5113146;28;20543;-38
2022/07/12 03:27:40;;;;;;;4.03;3.65;;;;;;;7.51;72.98;93920.00;5113123;28;20031;-38
2022/07/12 03:30:06;;;;;;;4.20;3.58;;;;;;;7.53;72.92;93925.75;5112473;28;20058;-37
2022/07/12 03:32:32;;;;;;;4.47;3.70;;;;;;;7.49;72.66;93921.81;5113316;27;20416;-38
2022/07/12 03:34:57;;;;;;;5.18;3.70;;;;;;;7.43;73.50;93932.09;5112212;28;20027;-38
2022/07/12 03:37:23;;;;;;;3.70;3.40;;;;;;;7.72;72.43;93933.25;5112011;28;20031;-38
2022/07/12 03:39:48;;;;;;;4.15;3.67;;;;;;;7.52;72.97;93935.25;5113032;28;20119;-38
2022/07/12 03:42:14;;;;;;;4.07;3.53;;;;;;;7.72;73.02;93927.75;5112633;28;20412;-38
2022/07/12 03:44:39;;;;;;;8.88;3.70;;;;;;;7.75;73.53;93924.75;5112234;28;20504;-38
2022/07/12 03:47:05;;;;;;;7.55;3.90;;;;;;;7.69;73.30;93921.28;5112875;28;20050;-38
2022/07/12 03:49:31;;;;;;;3.88;3.45;;;;;;;7.73;73.65;93927.25;5112255;28;20047;-38
2022/07/12 03:51:56;;;;;;;3.90;3.60;;;;;;;7.69;74.56;93923.31;5112919;27;20023;-38
2022/07/12 03:54:22;;;;;;;3.92;3.63;;;;;;;7.87;73.86;93930.81;5112888;28;20015;-38
2022/07/12 03:59:32;;;;;;;3.45;3.15;;;;;;;8.10;72.87;93932.03;5112567;28;20030;-39
2022/07/12 04:01:58;;;;;;;3.90;3.60;;;;;;;8.17;72.63;93928.66;5111815;28;20481;-39
2022/07/12 04:04:23;;;;;;;5.10;3.95;;;;;;;8.01;72.93;93915.91;5112226;28;20028;-39
2022/07/12 04:18:41;;;;;;;10.65;9.00;;;;;;;9.33;69.12;93942.59;5128307;27;20856;-39
2022/07/12 04:21:06;;;;;;;8.43;7.60;;;;;;;9.10;70.65;93939.47;5111563;27;20112;-40
2022/07/12 04:23:32;;;;;;;9.65;8.27;;;;;;;9.04;71.14;93947.84;5104831;28;20028;-40
2022/07/12 04:25:58;;;;;;;9.52;8.40;;;;;;;8.99;71.68;93937.66;5087280;28;20024;-39
2022/07/12 04:28:24;;;;;;;9.95;8.75;;;;;;;8.84;72.52;93942.94;5087650;28;20020;-40
2022/07/12 04:30:49;;;;;;;13.15;8.10;;;;;;;8.77;73.45;93934.56;5101044;28;20462;-40
2022/07/12 04:33:15;;;;;;;16.85;10.88;;;;;;;8.94;73.36;93935.75;5107930;28;20054;-40
2022/07/12 04:35:40;;;;;;;12.07;9.60;;;;;;;8.93;73.83;93926.00;5107915;28;20513;-40
2022/07/12 04:38:07;;;;;;;8.98;7.55;;;;;;;9.04;74.43;93938.84;5100910;28;20023;-40
2022/07/12 04:40:34;;;;;;;7.63;6.55;;;;;;;9.20;74.70;93940.56;5101335;28;20038;-40
2022/07/12 04:42:59;;;;;;;7.63;4.80;;;;;;;9.15;74.78;93944.91;5086976;28;20021;-41
2022/07/12 04:45:25;;;;;;;5.85;5.35;;;;;;;9.22;75.05;93937.28;5087285;28;20071;-39
2022/07/12 04:47:50;;;;;;;5.45;4.95;;;;;;;9.15;75.82;93944.91;5087307;28;20528;-39
2022/07/12 04:50:16;;;;;;;6.53;5.50;;;;;;;9.34;75.22;93938.56;5094118;28;20031;-39
2022/07/12 04:52:41;;;;;;;6.13;5.63;;;;;;;9.41;75.99;93944.19;5107562;28;20561;-40
2022/07/12 04:55:07;;;;;;;6.38;5.32;;;;;;;9.42;76.02;93931.88;5107473;28;20051;-39
2022/07/12 04:57:33;;;;;;;5.07;4.63;;;;;;;9.65;75.32;93941.22;5085587;28;20098;-39
2022/07/12 04:59:58;;;;;;;5.85;5.05;;;;;;;9.77;76.52;93939.72;5103959;28;20019;-39
2022/07/12 05:02:24;;;;;;;6.55;4.95;;;;;;;9.80;75.96;93943.44;5107307;28;20110;-40
2022/07/12 05:04:49;;;;;;;5.50;4.32;;;;;;;9.87;75.67;93940.03;5107354;28;20050;-40
2022/07/12 05:07:15;;;;;;;4.03;3.67;;;;;;;10.01;74.70;93943.50;5107257;28;20523;-40
2022/07/12 05:09:40;;;;;;;7.57;4.50;;;;;;;10.03;74.39;93927.91;5107167;28;20430;-40
2022/07/12 05:12:06;;;;;;;4.57;4.15;;;;;;;10.27;74.10;93943.47;5106947;28;20138;-41
2022/07/12 05:14:32;;;;;;;4.97;4.57;;;;;;;10.24;74.52;93919.72;5105947;28;20023;-40
2022/07/12 05:16:57;;;;;;;4.55;4.10;;;;;;;10.44;73.90;93943.84;5086443;28;20036;-40
2022/07/12 05:19:23;;;;;;;3.78;3.47;;;;;;;10.44;73.50;93947.38;5074531;28;20463;-40
2022/07/12 05:21:49;;;;;;;4.72;3.95;;;;;;;10.49;74.89;93946.50;5073045;28;20100;-40
2022/07/12 05:24:14;;;;;;;4.53;3.90;;;;;;;10.65;74.25;93950.88;5073204;28;20028;-40
2022/07/12 05:26:41;;;;;;;4.80;4.30;;;;;;;10.80;74.85;93952.34;5072674;28;20528;-39
2022/07/12 05:29:06;;;;;;;6.90;3.90;;;;;;;10.99;74.45;93944.59;5075422;28;20115;-40
2022/07/12 05:31:32;;;;;;;4.70;4.13;;;;;;;10.95;75.29;93942.16;5092968;28;20103;-41
2022/07/12 05:33:57;;;;;;;7.55;4.00;;;;;;;11.12;75.06;93944.50;5092871;28;20020;-40
2022/07/12 05:36:22;;;;;;;5.47;4.75;;;;;;;11.21;75.47;93939.25;5092892;28;20020;-40
2022/07/12 05:38:48;;;;;;;4.60;4.20;;;;;;;11.25;75.90;93936.88;5089218;28;20016;-40
2022/07/12 05:41:14;;;;;;;4.35;3.95;;;;;;;11.28;74.58;93940.59;5072561;28;20021;-40
2022/07/12 05:43:39;;;;;;;4.60;3.65;;;;;;;11.47;73.88;93941.09;5072549;28;20091;-40
2022/07/12 05:46:05;;;;;;;3.83;3.53;;;;;;;11.43;71.72;93941.44;5072374;28;20028;-39
2022/07/12 05:48:30;;;;;;;7.65;3.47;;;;;;;11.67;71.65;93937.59;5072526;28;20031;-40
2022/07/12 05:53:21;;;;;;;5.97;3.92;;;;;;;11.75;71.06;93945.91;5072117;28;20031;-40
2022/07/12 05:53:41;;;;;;;15.23;3.97;;;;;;;11.80;72.26;93936.72;5072385;28;20025;-40
2022/07/12 05:56:07;;;;;;;4.65;3.30;;;;;;;11.78;72.20;93937.25;5088423;28;20035;-40
2022/07/12 05:58:32;;;;;;;3.95;3.30;;;;;;;11.85;71.21;93942.09;5092413;28;20028;-40
2022/07/12 06:00:58;;;;;;;4.40;3.42;;;;;;;11.92;71.24;93937.88;5092418;28;20023;-40
2022/07/12 06:03:23;;;;;;;3.88;3.45;;;;;;;12.10;70.11;93943.16;5092444;28;20068;-40
2022/07/12 06:05:49;;;;;;;3.05;2.75;;;;;;;12.15;69.84;93933.19;5092284;28;20043;-39
2022/07/12 06:08:14;;;;;;;2.88;2.67;;;;;;;12.36;70.46;93941.41;5092459;28;20016;-40
2022/07/12 06:10:40;;;;;;;6.65;3.47;;;;;;;12.51;69.05;93938.69;5092224;28;20488;-40
2022/07/12 06:13:05;;;;;;;4.68;2.75;;;;;;;12.59;68.11;93942.22;5092325;28;20020;-40
2022/07/12 06:15:31;;;;;;;4.03;2.60;;;;;;;12.67;66.25;93942.97;5095886;28;20019;-40
2022/07/12 06:17:58;;;;;;;2.88;2.40;;;;;;;12.80;66.17;93940.78;5101411;28;20051;-41
2022/07/12 06:20:24;;;;;;;2.72;2.47;;;;;;;12.83;66.81;93941.72;5101653;28;20028;-40
2022/07/12 06:22:49;;;;;;;3.42;2.70;;;;;;;12.94;65.27;93939.34;5104442;28;20420;-40
2022/07/12 06:25:15;;;;;;;3.08;2.80;;;;;;;13.00;66.21;93938.41;5112350;28;20416;-40
2022/07/12 06:27:40;;;;;;;3.45;2.90;;;;;;;13.12;66.84;93934.03;5111305;28;20028;-40
2022/07/12 06:30:06;;;;;;;3.25;2.58;;;;;;;13.18;66.08;93931.78;5111587;28;20648;-40
2022/07/12 06:32:33;;;;;;;3.70;2.50;;;;;;;13.26;65.40;93938.81;5112377;28;20027;-40
2022/07/12 11:19:40;;;;;;;9.90;1.98;;;;;;;24.73;30.99;93851.03;5128333;27;20610;-41
2022/07/12 11:22:05;;;;;;;2.17;1.50;;;;;;;24.25;31.82;93845.13;5128372;27;20486;-40
2022/07/12 11:24:32;;;;;;;1.50;1.25;;;;;;;23.98;32.63;93840.22;5128359;27;20026;-40
2022/07/12 11:26:59;;;;;;;3.47;1.10;;;;;;;23.64;33.53;93833.56;5108044;28;20405;-41
2022/07/12 11:29:25;;;;;;;1.02;0.85;;;;;;;23.20;33.22;93837.56;5107749;27;20415;-39
2022/07/12 11:32:06;;;;;;;1.50;0.90;;;;;;;22.86;34.10;93840.63;5107680;27;20106;-40
2022/07/12 11:34:35;;;;;;;2.78;1.23;;;;;;;22.49;33.49;93837.84;5107663;27;20024;-40
2022/07/12 11:37:01;;;;;;;0.60;0.60;;;;;;;22.44;34.22;93845.31;5107989;27;20050;-39
2022/07/12 11:39:34;;;;;;;2.58;1.20;;;;;;;22.58;35.30;93831.31;5107586;28;20038;-40
2022/07/12 11:41:59;;;;;;;1.98;1.10;;;;;;;22.78;34.21;93837.38;5107264;27;20028;-39
2022/07/12 11:44:48;;;;;;;5.43;0.88;;;;;;;23.06;34.73;93831.19;5111932;28;20029;-41
2022/07/12 11:47:15;;;;;;;0.98;0.73;;;;;;;23.37;32.97;93824.38;5120548;28;20034;-40
2022/07/12 11:49:48;;;;;;;1.33;0.70;;;;;;;23.78;33.75;93825.84;5118716;28;20032;-43
2022/07/12 11:52:17;;;;;;;1.85;0.80;;;;;;;24.12;34.98;93829.69;5121786;28;20035;-44
2022/07/12 11:54:47;;;;;;;3.00;1.00;;;;;;;23.81;31.71;93818.94;5120293;28;20024;-43
2022/07/12 11:57:13;;;;;;;3.00;0.82;;;;;;;23.65;31.49;93814.59;5121070;27;20069;-42
2022/07/12 11:59:39;;;;;;;2.10;0.95;;;;;;;23.89;34.11;93821.44;5118667;27;20023;-42
2022/07/12 12:02:12;;;;;;;1.15;0.93;;;;;;;24.08;32.09;93801.28;5104504;28;20038;-42
2022/07/12 12:04:54;;;;;;;5.47;0.82;;;;;;;24.45;32.92;93810.16;5104659;28;20023;-42
2022/07/12 12:07:21;;;;;;;3.88;1.20;;;;;;;24.82;35.33;93813.38;5104696;28;20024;-41
2022/07/12 12:10:15;;;;;;;2.60;0.80;;;;;;;24.94;31.72;93799.09;5103695;28;20027;-42
2022/07/12 12:12:45;;;;;;;1.52;0.70;;;;;;;24.86;31.14;93812.84;5121454;28;20027;-42
2022/07/12 12:15:13;;;;;;;8.63;1.60;;;;;;;24.42;33.45;93805.06;5121992;27;20093;-41
2022/07/12 12:17:45;;;;;;;5.67;1.17;;;;;;;24.30;31.44;93799.53;5114054;28;20039;-41
2022/07/12 12:20:19;;;;;;;5.90;1.00;;;;;;;23.80;33.44;93791.38;5101932;28;20034;-42
2022/07/12 12:22:47;;;;;;;1.08;0.80;;;;;;;23.57;32.92;93806.44;5098546;28;20444;-41
2022/07/12 12:25:14;;;;;;;3.30;1.17;;;;;;;23.30;33.40;93812.03;5099936;28;20024;-43
2022/07/12 12:27:49;;;;;;;1.75;0.93;;;;;;;23.20;33.02;93812.22;5098593;28;20024;-41
2022/07/12 12:30:17;;;;;;;4.60;1.27;;;;;;;23.16;33.79;93802.81;5100369;28;20417;-40
2022/07/12 12:32:46;;;;;;;1.27;0.80;;;;;;;23.46;36.63;93801.63;5100439;27;20019;-40
2022/07/12 12:35:13;;;;;;;2.40;0.90;;;;;;;23.71;35.29;93800.78;5104885;28;20031;-40
2022/07/12 12:37:40;;;;;;;1.50;0.80;;;;;;;23.94;32.02;93809.75;5107327;28;20039;-40
2022/07/12 12:40:06;;;;;;;2.72;0.77;;;;;;;23.88;32.56;93800.97;5104364;28;20107;-40
2022/07/12 12:42:32;;;;;;;1.73;0.95;;;;;;;23.66;32.22;93799.84;5101063;28;20111;-40
2022/07/12 12:44:57;;;;;;;0.98;0.80;;;;;;;23.46;33.62;93809.34;5098764;28;20095;-40
2022/07/12 12:47:32;;;;;;;1.20;0.80;;;;;;;23.16;33.44;93797.94;5098162;28;20035;-40
2022/07/12 12:49:59;;;;;;;2.05;0.90;;;;;;;22.77;34.51;93790.84;5099180;28;20107;-41
2022/07/12 12:52:26;;;;;;;4.78;1.05;;;;;;;22.80;34.43;93801.63;5100258;28;20023;-41
2022/07/12 12:54:52;;;;;;;1.30;0.82;;;;;;;22.70;34.16;93797.53;5099560;28;20020;-40
2022/07/12 12:57:18;;;;;;;4.82;1.15;;;;;;;22.62;33.94;93803.44;5099428;28;20485;-40
2022/07/12 12:59:44;;;;;;;0.95;0.70;;;;;;;22.48;34.63;93800.53;5100177;28;20433;-40
2022/07/12 13:02:09;;;;;;;2.25;1.00;;;;;;;22.55;35.49;93796.69;5097396;28;20046;-40
2022/07/12 13:04:36;;;;;;;1.42;0.90;;;;;;;22.73;35.20;93799.81;5098190;28;20027;-39
2022/07/12 13:07:02;;;;;;;0.98;0.75;;;;;;;22.82;35.46;93793.28;5101624;28;20023;-40
2022/07/12 13:09:29;;;;;;;1.40;0.75;;;;;;;22.82;34.60;93798.16;5102030;28;20028;-40
2022/07/12 13:11:58;;;;;;;0.98;0.70;;;;;;;22.93;35.86;93795.28;5101043;28;20020;-40
2022/07/12 13:14:24;;;;;;;3.30;1.65;;;;;;;22.97;35.47;93795.50;5100606;28;20111;-40
2022/07/12 13:16:50;;;;;;;5.38;1.40;;;;;;;22.98;34.11;93793.41;5097420;28;20035;-40
2022/07/12 13:19:15;;;;;;;1.17;0.90;;;;;;;22.89;34.54;93803.50;5095042;28;20039;-40
2022/07/12 13:21:41;;;;;;;1.10;1.00;;;;;;;22.72;34.53;93780.75;5091978;28;20028;-39
2022/07/12 13:24:07;;;;;;;2.05;0.90;;;;;;;22.83;35.71;93799.63;5092231;28;20497;-39
2022/07/12 13:26:32;;;;;;;2.17;0.90;;;;;;;23.00;35.53;93799.88;5104695;28;20035;-41
2022/07/12 13:28:58;;;;;;;1.30;1.15;;;;;;;23.16;35.11;93795.09;5108901;28;20404;-40
2022/07/12 13:31:23;;;;;;;1.60;0.93;;;;;;;23.28;33.85;93798.56;5100210;28;20066;-40
2022/07/12 13:33:49;;;;;;;1.92;1.13;;;;;;;23.35;34.52;93791.19;5105231;28;20047;-40
2022/07/12 13:36:15;;;;;;;1.58;0.90;;;;;;;23.00;32.96;93788.59;5111982;28;20026;-40
2022/07/12 13:38:40;;;;;;;1.77;0.90;;;;;;;22.97;35.12;93789.13;5104790;28;20020;-41
2022/07/12 13:41:06;;;;;;;1.70;0.93;;;;;;;22.97;34.13;93791.94;5095344;28;20051;-39
2022/07/12 13:43:32;;;;;;;1.35;0.75;;;;;;;22.69;35.27;93793.22;5106155;28;20039;-40
2022/07/12 13:45:57;;;;;;;2.47;1.25;;;;;;;22.63;35.47;93787.28;5111811;28;20027;-39
2022/07/12 13:48:23;;;;;;;3.63;1.00;;;;;;;22.51;36.36;93781.69;5106844;28;20104;-40
2022/07/12 13:50:49;;;;;;;1.25;1.00;;;;;;;22.68;35.47;93774.88;5100621;28;20028;-40
2022/07/12 13:53:14;;;;;;;1.73;1.02;;;;;;;22.74;34.37;93780.84;5111712;28;20019;-39
2022/07/12 13:55:44;;;;;;;1.55;0.70;;;;;;;22.85;37.35;93780.75;5111945;28;20106;-40
2022/07/12 13:58:09;;;;;;;3.90;0.90;;;;;;;22.60;36.61;93756.22;5111947;28;20011;-39
2022/07/12 14:00:35;;;;;;;2.05;0.93;;;;;;;22.95;36.62;93783.41;5111574;28;20043;-39
2022/07/12 14:03:01;;;;;;;3.53;0.82;;;;;;;23.05;35.21;93778.28;5111820;28;20055;-39
2022/07/12 14:05:27;;;;;;;1.85;0.90;;;;;;;23.00;36.20;93782.25;5110579;28;20015;-39
2022/07/12 14:07:53;;;;;;;3.80;0.98;;;;;;;22.91;35.02;93781.09;5111263;28;20446;-39
2022/07/12 14:10:19;;;;;;;6.65;1.05;;;;;;;22.53;35.13;93762.09;5102699;28;20032;-39
2022/07/12 14:12:44;;;;;;;1.77;1.00;;;;;;;22.76;35.81;93784.47;5105445;28;20409;-40
2022/07/12 14:17:49;;;;;;;1.60;1.10;;;;;;;22.65;36.48;93785.31;5095712;28;20035;-40
2022/07/12 14:20:19;;;;;;;1.75;1.20;;;;;;;22.50;37.11;93775.31;5111446;28;20100;-40
2022/07/12 14:22:45;;;;;;;2.15;1.10;;;;;;;22.59;37.39;93782.88;5111131;28;20023;-40
2022/07/12 14:25:11;;;;;;;3.17;1.15;;;;;;;22.67;38.17;93771.34;5111380;28;20519;-40
2022/07/12 14:27:38;;;;;;;0.90;0.70;;;;;;;22.86;36.73;93781.50;5110824;28;20024;-39
2022/07/12 14:30:08;;;;;;;1.70;0.95;;;;;;;22.95;37.00;93777.75;5102873;28;20116;-39
2022/07/12 14:32:34;;;;;;;2.65;0.98;;;;;;;23.22;36.41;93769.34;5107653;28;20601;-40
2022/07/12 14:35:00;;;;;;;3.00;0.90;;;;;;;23.46;35.21;93756.53;5110997;28;20031;-39
2022/07/12 14:37:26;;;;;;;4.22;1.10;;;;;;;23.58;33.73;93776.16;5110520;28;20022;-39
2022/07/12 14:39:51;;;;;;;1.73;1.00;;;;;;;23.78;35.09;93775.06;5095650;28;20100;-39
2022/07/12 14:42:17;;;;;;;5.20;1.08;;;;;;;23.82;33.53;93774.56;5100976;28;20016;-40
2022/07/12 14:44:43;;;;;;;0.95;0.90;;;;;;;23.73;33.21;93776.25;5099622;28;20028;-40
2022/07/12 14:47:09;;;;;;;0.80;0.80;;;;;;;23.65;35.06;93773.00;5099351;28;20489;-40
2022/07/12 14:49:34;;;;;;;1.02;1.00;;;;;;;23.76;34.97;93771.41;5100786;28;20050;-39
2022/07/12 14:52:00;;;;;;;1.13;0.85;;;;;;;23.78;33.88;93768.72;5098873;28;20016;-39
2022/07/12 14:54:25;;;;;;;3.22;1.02;;;;;;;23.67;33.40;93773.09;5101189;28;20031;-39
2022/07/12 14:56:51;;;;;;;2.15;1.30;;;;;;;23.50;33.74;93765.19;5104181;28;20015;-40
2022/07/12 14:59:16;;;;;;;5.82;1.15;;;;;;;23.15;34.15;93773.91;5099423;28;20024;-39
2022/07/12 15:01:42;;;;;;;1.70;1.10;;;;;;;22.80;35.34;93773.47;5100736;28;20032;-39
2022/07/12 15:04:07;;;;;;;1.30;1.23;;;;;;;22.54;36.49;93769.19;5097531;28;20077;-39
2022/07/12 15:06:33;;;;;;;1.85;1.10;;;;;;;22.55;37.98;93779.81;5104178;28;20015;-39
2022/07/12 15:08:59;;;;;;;3.03;1.23;;;;;;;22.31;36.76;93777.72;5100453;28;20098;-39
2022/07/12 15:11:25;;;;;;;2.00;1.30;;;;;;;22.19;37.31;93775.00;5109184;28;20035;-39
2022/07/12 15:13:50;;;;;;;0.75;0.75;;;;;;;22.05;37.59;93779.06;5110458;28;20028;-39
2022/07/12 15:16:16;;;;;;;3.03;1.20;;;;;;;21.91;37.97;93776.19;5106007;28;20016;-39
2022/07/12 15:18:41;;;;;;;3.72;1.67;;;;;;;22.03;38.82;93776.88;5089946;28;20040;-39
2022/07/12 15:21:07;;;;;;;2.40;1.30;;;;;;;22.06;37.85;93772.09;5103928;28;20031;-40
2022/07/12 15:23:32;;;;;;;1.30;1.15;;;;;;;21.89;37.02;93776.78;5110663;28;20027;-39
2022/07/12 15:25:58;;;;;;;2.83;0.90;;;;;;;21.88;37.77;93775.34;5110691;28;20030;-40
2022/07/12 15:28:28;;;;;;;2.35;1.30;;;;;;;21.77;38.91;93775.34;5110280;28;20400;-40
2022/07/12 15:30:54;;;;;;;3.88;1.50;;;;;;;21.87;38.27;93776.69;5110352;28;20035;-39
2022/07/12 15:33:20;;;;;;;1.50;1.10;;;;;;;21.99;38.60;93773.09;5110331;28;20108;-40
2022/07/12 15:35:45;;;;;;;3.78;1.13;;;;;;;21.96;39.53;93769.44;5097700;28;20062;-41
2022/07/12 15:38:11;;;;;;;1.08;0.90;;;;;;;22.01;38.55;93776.75;5089286;28;20047;-40
2022/07/12 15:40:37;;;;;;;2.25;1.02;;;;;;;22.05;38.25;93774.19;5089443;28;20024;-40
2022/07/12 15:43:03;;;;;;;1.98;1.33;;;;;;;21.95;38.39;93773.63;5090335;28;20062;-40
2022/07/12 15:45:28;;;;;;;1.48;1.38;;;;;;;21.76;38.59;93771.09;5105735;28;20027;-38
2022/07/12 15:47:54;;;;;;;1.15;1.00;;;;;;;21.76;38.08;93776.69;5110054;28;20049;-39
2022/07/12 15:50:38;;;;;;;8.35;1.25;;;;;;;21.78;39.45;93780.38;5110501;28;20091;-38
2022/07/12 15:55:48;;;;;;;1.92;1.65;;;;;;;21.85;38.66;93782.19;5113469;28;20076;-38
2022/07/12 15:58:13;;;;;;;1.80;0.90;;;;;;;21.85;38.06;93773.75;5114275;28;20024;-38
2022/07/12 16:00:39;;;;;;;3.80;1.52;;;;;;;21.90;39.41;93780.34;5114288;28;20560;-37
2022/07/12 16:03:05;;;;;;;3.05;1.10;;;;;;;21.94;38.16;93786.19;5113824;28;20496;-37
2022/07/12 16:05:30;;;;;;;2.70;0.75;;;;;;;21.85;39.26;93787.81;5103514;28;20032;-38
2022/07/12 16:07:56;;;;;;;1.52;1.02;;;;;;;21.91;39.76;93784.63;5110414;28;20544;-38
2022/07/12 16:10:23;;;;;;;5.65;1.15;;;;;;;21.98;40.07;93789.25;5113966;28;20488;-38
2022/07/12 16:12:48;;;;;;;3.60;0.95;;;;;;;21.99;41.11;93787.91;5113721;28;20505;-38
2022/07/12 16:15:14;;;;;;;3.67;1.13;;;;;;;21.82;39.94;93796.72;5113627;28;20024;-38
2022/07/12 16:17:39;;;;;;;1.70;0.80;;;;;;;21.69;38.74;93792.47;5096844;28;20036;-38
2022/07/12 16:20:06;;;;;;;3.17;1.23;;;;;;;21.58;39.68;93800.94;5093496;28;20136;-38
2022/07/12 16:22:31;;;;;;;1.83;1.20;;;;;;;21.54;40.92;93793.00;5093181;28;20501;-38
2022/07/12 16:24:57;;;;;;;1.58;1.02;;;;;;;21.44;40.60;93800.09;5093339;28;20031;-38
2022/07/12 16:27:23;;;;;;;1.15;0.77;;;;;;;21.33;39.93;93795.94;5092948;28;20020;-37
2022/07/12 16:29:49;;;;;;;3.05;1.00;;;;;;;21.21;40.79;93805.72;5092949;28;20039;-38
2022/07/12 16:32:14;;;;;;;1.92;1.20;;;;;;;21.18;41.49;93806.94;5093180;28;20020;-38
2022/07/12 16:34:41;;;;;;;2.65;1.30;;;;;;;21.23;40.42;93806.56;5091727;28;20051;-38
2022/07/12 16:37:06;;;;;;;4.10;1.25;;;;;;;21.18;40.88;93796.44;5092792;28;20497;-38